This is the latest recevied weather packets stored in our database for station/object SP9POL-3. If no packets are shown the sender has not sent any weather packets the latest 10 day(s).
| Time | Temp. | Humidity | Pressure | Rain* | Wind** | Luminosity | Snow |
|---|---|---|---|---|---|---|---|
| 1777938607 | 13.89° C | 52% | 1010.1 hPa | - | - | - | - |
| 1777936926 | 14.44° C | 51% | 1010.2 hPa | - | - | - | - |
| 1777935246 | 15° C | 48% | 1010.3 hPa | - | - | - | - |
| 1777933566 | 15.56° C | 45% | 1010.5 hPa | - | - | - | - |
| 1777931886 | 15.56° C | 44% | 1010.5 hPa | - | - | - | - |
| 1777930206 | 15.56° C | 42% | 1010.5 hPa | - | - | - | - |
| 1777928525 | 16.11° C | 39% | 1010.5 hPa | - | - | - | - |
| 1777926845 | 16.67° C | 38% | 1010.4 hPa | - | - | - | - |
| 1777925165 | 17.22° C | 36% | 1010.1 hPa | - | - | - | - |
| 1777923485 | 17.78° C | 34% | 1010.1 hPa | - | - | - | - |
| 1777921805 | 18.33° C | 34% | 1010 hPa | - | - | - | - |
| 1777920124 | 20° C | 29% | 1010 hPa | - | - | - | - |
| 1777918444 | 20.56° C | 27% | 1009.8 hPa | - | - | - | - |
| 1777916764 | 21.67° C | 26% | 1009.7 hPa | - | - | - | - |
| 1777915084 | 22.78° C | 24% | 1009.6 hPa | - | - | - | - |
| 1777913404 | 23.33° C | 22% | 1009.6 hPa | - | - | - | - |
| 1777911724 | 24.44° C | 21% | 1009.6 hPa | - | - | - | - |
| 1777910044 | 26.67° C | 19% | 1009.8 hPa | - | - | - | - |
| 1777908363 | 29.44° C | 15% | 1009.8 hPa | - | - | - | - |
| 1777906683 | 31.11° C | 14% | 1010 hPa | - | - | - | - |
| 1777905003 | 27.22° C | 18% | 1010.1 hPa | - | - | - | - |
| 1777903323 | 26.67° C | 18% | 1010.3 hPa | - | - | - | - |
| 1777901643 | 25° C | 20% | 1010.5 hPa | - | - | - | - |
| 1777899962 | 25° C | 19% | 1010.8 hPa | - | - | - | - |
| 1777898282 | 25° C | 20% | 1011.1 hPa | - | - | - | - |
* Rain since midnight (hover to see other rain measurements)
** Current wind speed in m/s (hover to see current wind gust speed)